sensor_id;sensor_type;location;lat;lon;timestamp;P1;durP1;ratioP1;P2;durP2;ratioP2
61962;SDS011;47927;42.646;23.096;2023-02-01T00:01:49;5.07;;;2.10;;
61962;SDS011;47927;42.646;23.096;2023-02-01T00:04:15;2.50;;;1.60;;
61962;SDS011;47927;42.646;23.096;2023-02-01T00:06:41;4.35;;;1.58;;
61962;SDS011;47927;42.646;23.096;2023-02-01T00:09:06;2.92;;;1.58;;
61962;SDS011;47927;42.646;23.096;2023-02-01T00:11:32;6.60;;;1.83;;
61962;SDS011;47927;42.646;23.096;2023-02-01T00:13:58;3.28;;;1.52;;
61962;SDS011;47927;42.646;23.096;2023-02-01T00:16:28;2.95;;;1.35;;
61962;SDS011;47927;42.646;23.096;2023-02-01T00:18:56;6.20;;;1.60;;
61962;SDS011;47927;42.646;23.096;2023-02-01T00:21:24;2.60;;;1.40;;
61962;SDS011;47927;42.646;23.096;2023-02-01T00:23:49;2.00;;;1.00;;
61962;SDS011;47927;42.646;23.096;2023-02-01T00:26:17;2.70;;;1.55;;
61962;SDS011;47927;42.646;23.096;2023-02-01T00:28:44;2.72;;;1.33;;
61962;SDS011;47927;42.646;23.096;2023-02-01T00:31:10;2.38;;;1.40;;
61962;SDS011;47927;42.646;23.096;2023-02-01T00:33:36;3.80;;;1.40;;
61962;SDS011;47927;42.646;23.096;2023-02-01T00:36:03;2.90;;;1.23;;
61962;SDS011;47927;42.646;23.096;2023-02-01T00:38:31;2.40;;;1.42;;
61962;SDS011;47927;42.646;23.096;2023-02-01T00:41:02;2.22;;;1.27;;
61962;SDS011;47927;42.646;23.096;2023-02-01T00:43:48;2.10;;;1.35;;
61962;SDS011;47927;42.646;23.096;2023-02-01T00:46:15;1.85;;;1.02;;
61962;SDS011;47927;42.646;23.096;2023-02-01T00:48:42;2.42;;;1.00;;
61962;SDS011;47927;42.646;23.096;2023-02-01T00:51:09;2.17;;;1.08;;
61962;SDS011;47927;42.646;23.096;2023-02-01T00:53:37;2.35;;;0.82;;
61962;SDS011;47927;42.646;23.096;2023-02-01T00:56:03;2.10;;;1.08;;
61962;SDS011;47927;42.646;23.096;2023-02-01T00:58:30;1.55;;;0.88;;
61962;SDS011;47927;42.646;23.096;2023-02-01T01:01:10;3.30;;;1.02;;
61962;SDS011;47927;42.646;23.096;2023-02-01T01:03:41;2.58;;;1.08;;
61962;SDS011;47927;42.646;23.096;2023-02-01T01:06:09;1.58;;;0.70;;
61962;SDS011;47927;42.646;23.096;2023-02-01T01:08:37;1.48;;;0.70;;
61962;SDS011;47927;42.646;23.096;2023-02-01T01:11:04;1.92;;;0.98;;
61962;SDS011;47927;42.646;23.096;2023-02-01T01:13:34;3.00;;;0.93;;
61962;SDS011;47927;42.646;23.096;2023-02-01T01:16:00;2.03;;;1.25;;
61962;SDS011;47927;42.646;23.096;2023-02-01T01:18:28;3.60;;;1.15;;
61962;SDS011;47927;42.646;23.096;2023-02-01T01:20:54;3.20;;;1.13;;
61962;SDS011;47927;42.646;23.096;2023-02-01T01:23:20;4.53;;;1.35;;
61962;SDS011;47927;42.646;23.096;2023-02-01T01:25:45;1.45;;;0.68;;
61962;SDS011;47927;42.646;23.096;2023-02-01T01:28:11;1.80;;;1.00;;
61962;SDS011;47927;42.646;23.096;2023-02-01T01:30:36;5.57;;;0.90;;
61962;SDS011;47927;42.646;23.096;2023-02-01T01:33:02;2.17;;;1.05;;
61962;SDS011;47927;42.646;23.096;2023-02-01T01:35:29;4.97;;;1.00;;
61962;SDS011;47927;42.646;23.096;2023-02-01T01:37:56;1.58;;;1.08;;
61962;SDS011;47927;42.646;23.096;2023-02-01T01:40:21;1.98;;;1.02;;
61962;SDS011;47927;42.646;23.096;2023-02-01T01:42:47;1.08;;;0.75;;
61962;SDS011;47927;42.646;23.096;2023-02-01T01:47:48;3.42;;;1.25;;
61962;SDS011;47927;42.646;23.096;2023-02-01T01:50:23;2.92;;;1.20;;
61962;SDS011;47927;42.646;23.096;2023-02-01T01:52:53;8.77;;;1.00;;
61962;SDS011;47927;42.646;23.096;2023-02-01T01:55:22;2.58;;;1.45;;
61962;SDS011;47927;42.646;23.096;2023-02-01T01:57:56;3.70;;;1.00;;
61962;SDS011;47927;42.646;23.096;2023-02-01T02:00:25;2.15;;;0.90;;
61962;SDS011;47927;42.646;23.096;2023-02-01T02:02:54;5.50;;;1.10;;
61962;SDS011;47927;42.646;23.096;2023-02-01T02:05:25;2.13;;;0.98;;
61962;SDS011;47927;42.646;23.096;2023-02-01T02:07:52;1.95;;;1.05;;
61962;SDS011;47927;42.646;23.096;2023-02-01T02:13:07;1.45;;;0.63;;
61962;SDS011;47927;42.646;23.096;2023-02-01T02:15:34;2.38;;;1.20;;
61962;SDS011;47927;42.646;23.096;2023-02-01T02:18:19;7.50;;;1.38;;
61962;SDS011;47927;42.646;23.096;2023-02-01T02:20:58;1.85;;;0.95;;
61962;SDS011;47927;42.646;23.096;2023-02-01T02:26:10;1.25;;;0.80;;
61962;SDS011;47927;42.646;23.096;2023-02-01T02:45:41;4.53;;;1.40;;
61962;SDS011;47927;42.646;23.096;2023-02-01T02:48:35;2.72;;;1.25;;
61962;SDS011;47927;42.646;23.096;2023-02-01T02:51:05;3.55;;;2.03;;
61962;SDS011;47927;42.646;23.096;2023-02-01T02:57:11;2.47;;;1.00;;
61962;SDS011;47927;42.646;23.096;2023-02-01T02:59:58;3.10;;;1.25;;
61962;SDS011;47927;42.646;23.096;2023-02-01T03:02:46;3.10;;;1.13;;
61962;SDS011;47927;42.646;23.096;2023-02-01T03:05:33;1.77;;;1.02;;
61962;SDS011;47927;42.646;23.096;2023-02-01T03:08:13;3.78;;;0.90;;
61962;SDS011;47927;42.646;23.096;2023-02-01T03:10:57;2.25;;;0.90;;
61962;SDS011;47927;42.646;23.096;2023-02-01T03:13:36;2.28;;;1.02;;
61962;SDS011;47927;42.646;23.096;2023-02-01T03:18:49;7.43;;;1.38;;
61962;SDS011;47927;42.646;23.096;2023-02-01T03:21:42;0.68;;;0.50;;
61962;SDS011;47927;42.646;23.096;2023-02-01T03:24:14;1.35;;;0.68;;
61962;SDS011;47927;42.646;23.096;2023-02-01T03:26:46;1.10;;;0.70;;
61962;SDS011;47927;42.646;23.096;2023-02-01T03:29:17;6.95;;;1.02;;
61962;SDS011;47927;42.646;23.096;2023-02-01T03:32:05;7.38;;;2.45;;
61962;SDS011;47927;42.646;23.096;2023-02-01T03:34:31;2.63;;;1.13;;
61962;SDS011;47927;42.646;23.096;2023-02-01T03:37:01;6.47;;;2.72;;
61962;SDS011;47927;42.646;23.096;2023-02-01T03:39:32;5.30;;;1.50;;
61962;SDS011;47927;42.646;23.096;2023-02-01T03:42:03;3.55;;;2.05;;
61962;SDS011;47927;42.646;23.096;2023-02-01T03:44:46;3.05;;;1.00;;
61962;SDS011;47927;42.646;23.096;2023-02-01T03:47:25;1.70;;;1.08;;
61962;SDS011;47927;42.646;23.096;2023-02-01T03:49:55;2.80;;;1.20;;
61962;SDS011;47927;42.646;23.096;2023-02-01T03:52:25;2.78;;;1.50;;
61962;SDS011;47927;42.646;23.096;2023-02-01T03:54:55;3.75;;;1.58;;
61962;SDS011;47927;42.646;23.096;2023-02-01T03:57:25;2.28;;;1.25;;
61962;SDS011;47927;42.646;23.096;2023-02-01T04:00:03;6.20;;;2.28;;
61962;SDS011;47927;42.646;23.096;2023-02-01T04:02:39;4.85;;;1.60;;
61962;SDS011;47927;42.646;23.096;2023-02-01T04:05:05;2.38;;;1.35;;
61962;SDS011;47927;42.646;23.096;2023-02-01T04:07:30;2.20;;;0.82;;
61962;SDS011;47927;42.646;23.096;2023-02-01T04:09:57;9.15;;;1.75;;
61962;SDS011;47927;42.646;23.096;2023-02-01T04:12:22;2.17;;;1.13;;
61962;SDS011;47927;42.646;23.096;2023-02-01T04:14:48;1.95;;;0.95;;
61962;SDS011;47927;42.646;23.096;2023-02-01T04:17:13;3.13;;;1.25;;
61962;SDS011;47927;42.646;23.096;2023-02-01T04:19:39;2.63;;;1.50;;
61962;SDS011;47927;42.646;23.096;2023-02-01T04:22:04;5.82;;;1.52;;
61962;SDS011;47927;42.646;23.096;2023-02-01T04:24:30;5.30;;;1.30;;
61962;SDS011;47927;42.646;23.096;2023-02-01T04:26:55;2.85;;;1.67;;
61962;SDS011;47927;42.646;23.096;2023-02-01T04:29:21;6.60;;;1.90;;
61962;SDS011;47927;42.646;23.096;2023-02-01T04:31:46;3.05;;;1.48;;
61962;SDS011;47927;42.646;23.096;2023-02-01T04:34:12;4.03;;;1.77;;
61962;SDS011;47927;42.646;23.096;2023-02-01T04:36:37;4.13;;;1.98;;
61962;SDS011;47927;42.646;23.096;2023-02-01T04:39:03;3.95;;;1.80;;
61962;SDS011;47927;42.646;23.096;2023-02-01T04:41:28;2.75;;;1.40;;
61962;SDS011;47927;42.646;23.096;2023-02-01T04:43:55;3.45;;;1.63;;
61962;SDS011;47927;42.646;23.096;2023-02-01T04:46:20;2.67;;;1.48;;
61962;SDS011;47927;42.646;23.096;2023-02-01T04:48:46;3.78;;;1.60;;
61962;SDS011;47927;42.646;23.096;2023-02-01T04:51:12;3.80;;;2.00;;
61962;SDS011;47927;42.646;23.096;2023-02-01T04:53:38;2.17;;;1.05;;
61962;SDS011;47927;42.646;23.096;2023-02-01T04:56:03;3.58;;;1.63;;
61962;SDS011;47927;42.646;23.096;2023-02-01T04:58:29;3.05;;;1.50;;
61962;SDS011;47927;42.646;23.096;2023-02-01T05:00:55;3.30;;;1.38;;
61962;SDS011;47927;42.646;23.096;2023-02-01T05:03:20;3.83;;;1.88;;
61962;SDS011;47927;42.646;23.096;2023-02-01T05:05:49;2.90;;;1.63;;
61962;SDS011;47927;42.646;23.096;2023-02-01T05:08:15;6.40;;;1.85;;
61962;SDS011;47927;42.646;23.096;2023-02-01T05:10:40;3.58;;;1.70;;
61962;SDS011;47927;42.646;23.096;2023-02-01T05:13:07;3.08;;;1.50;;
61962;SDS011;47927;42.646;23.096;2023-02-01T05:15:51;6.45;;;2.13;;
61962;SDS011;47927;42.646;23.096;2023-02-01T05:18:17;6.43;;;2.38;;
61962;SDS011;47927;42.646;23.096;2023-02-01T05:20:43;7.03;;;3.25;;
61962;SDS011;47927;42.646;23.096;2023-02-01T05:23:08;7.18;;;3.33;;
61962;SDS011;47927;42.646;23.096;2023-02-01T05:25:34;5.10;;;2.75;;
61962;SDS011;47927;42.646;23.096;2023-02-01T05:27:59;7.93;;;3.13;;
61962;SDS011;47927;42.646;23.096;2023-02-01T05:30:25;3.90;;;2.08;;
61962;SDS011;47927;42.646;23.096;2023-02-01T05:32:51;3.97;;;2.08;;
61962;SDS011;47927;42.646;23.096;2023-02-01T05:35:36;3.90;;;2.30;;
61962;SDS011;47927;42.646;23.096;2023-02-01T05:38:01;5.18;;;2.60;;
61962;SDS011;47927;42.646;23.096;2023-02-01T05:40:27;4.60;;;1.80;;
61962;SDS011;47927;42.646;23.096;2023-02-01T05:42:52;4.78;;;2.20;;
61962;SDS011;47927;42.646;23.096;2023-02-01T05:45:18;5.32;;;2.17;;
61962;SDS011;47927;42.646;23.096;2023-02-01T05:47:43;6.53;;;2.25;;
61962;SDS011;47927;42.646;23.096;2023-02-01T05:50:09;19.92;;;4.13;;
61962;SDS011;47927;42.646;23.096;2023-02-01T05:52:34;7.47;;;3.70;;
61962;SDS011;47927;42.646;23.096;2023-02-01T05:55:00;5.90;;;1.95;;
61962;SDS011;47927;42.646;23.096;2023-02-01T05:57:25;5.00;;;2.08;;
61962;SDS011;47927;42.646;23.096;2023-02-01T05:59:51;5.93;;;2.63;;
61962;SDS011;47927;42.646;23.096;2023-02-01T06:02:16;4.40;;;2.20;;
61962;SDS011;47927;42.646;23.096;2023-02-01T06:04:42;3.13;;;1.73;;
61962;SDS011;47927;42.646;23.096;2023-02-01T06:07:08;3.95;;;1.95;;
61962;SDS011;47927;42.646;23.096;2023-02-01T06:09:35;3.08;;;1.60;;
61962;SDS011;47927;42.646;23.096;2023-02-01T06:12:02;10.50;;;4.82;;
61962;SDS011;47927;42.646;23.096;2023-02-01T06:14:29;8.90;;;5.28;;
61962;SDS011;47927;42.646;23.096;2023-02-01T06:16:54;12.10;;;5.03;;
61962;SDS011;47927;42.646;23.096;2023-02-01T06:19:21;8.10;;;4.70;;
61962;SDS011;47927;42.646;23.096;2023-02-01T06:21:47;7.75;;;4.50;;
61962;SDS011;47927;42.646;23.096;2023-02-01T06:24:13;6.20;;;3.65;;
61962;SDS011;47927;42.646;23.096;2023-02-01T06:26:39;6.68;;;3.88;;
61962;SDS011;47927;42.646;23.096;2023-02-01T06:29:05;7.65;;;4.65;;
61962;SDS011;47927;42.646;23.096;2023-02-01T06:31:32;9.27;;;5.00;;
61962;SDS011;47927;42.646;23.096;2023-02-01T06:33:58;7.25;;;4.20;;
61962;SDS011;47927;42.646;23.096;2023-02-01T06:36:23;7.72;;;3.67;;
61962;SDS011;47927;42.646;23.096;2023-02-01T06:38:49;27.67;;;17.65;;
61962;SDS011;47927;42.646;23.096;2023-02-01T06:41:14;9.38;;;4.82;;
61962;SDS011;47927;42.646;23.096;2023-02-01T06:43:40;7.43;;;4.03;;
61962;SDS011;47927;42.646;23.096;2023-02-01T06:46:09;8.80;;;4.93;;
61962;SDS011;47927;42.646;23.096;2023-02-01T06:48:37;10.60;;;4.32;;
61962;SDS011;47927;42.646;23.096;2023-02-01T06:51:02;11.07;;;4.55;;
61962;SDS011;47927;42.646;23.096;2023-02-01T06:53:28;13.95;;;6.60;;
61962;SDS011;47927;42.646;23.096;2023-02-01T06:55:57;15.70;;;7.75;;
61962;SDS011;47927;42.646;23.096;2023-02-01T06:58:27;13.15;;;6.95;;
61962;SDS011;47927;42.646;23.096;2023-02-01T07:00:54;14.95;;;8.13;;
61962;SDS011;47927;42.646;23.096;2023-02-01T07:03:20;15.07;;;7.97;;
61962;SDS011;47927;42.646;23.096;2023-02-01T07:05:45;19.55;;;9.32;;
61962;SDS011;47927;42.646;23.096;2023-02-01T07:08:11;22.83;;;9.05;;
61962;SDS011;47927;42.646;23.096;2023-02-01T07:10:37;8.00;;;3.97;;
61962;SDS011;47927;42.646;23.096;2023-02-01T07:13:02;7.25;;;3.28;;
61962;SDS011;47927;42.646;23.096;2023-02-01T07:15:28;6.38;;;3.42;;
61962;SDS011;47927;42.646;23.096;2023-02-01T07:17:56;6.97;;;3.00;;
61962;SDS011;47927;42.646;23.096;2023-02-01T07:20:22;7.03;;;3.00;;
61962;SDS011;47927;42.646;23.096;2023-02-01T07:22:48;5.65;;;3.15;;
61962;SDS011;47927;42.646;23.096;2023-02-01T07:25:13;7.35;;;3.53;;
61962;SDS011;47927;42.646;23.096;2023-02-01T07:27:39;5.53;;;3.28;;
61962;SDS011;47927;42.646;23.096;2023-02-01T07:30:05;10.50;;;2.90;;
61962;SDS011;47927;42.646;23.096;2023-02-01T07:32:31;7.40;;;3.08;;
61962;SDS011;47927;42.646;23.096;2023-02-01T07:34:57;7.45;;;3.15;;
61962;SDS011;47927;42.646;23.096;2023-02-01T07:37:23;7.05;;;3.40;;
61962;SDS011;47927;42.646;23.096;2023-02-01T07:39:52;6.95;;;3.33;;
61962;SDS011;47927;42.646;23.096;2023-02-01T07:42:17;7.78;;;3.88;;
61962;SDS011;47927;42.646;23.096;2023-02-01T07:44:43;7.93;;;4.30;;
61962;SDS011;47927;42.646;23.096;2023-02-01T07:47:09;8.93;;;4.20;;
61962;SDS011;47927;42.646;23.096;2023-02-01T07:49:34;7.43;;;3.60;;
61962;SDS011;47927;42.646;23.096;2023-02-01T07:52:00;5.00;;;2.88;;
61962;SDS011;47927;42.646;23.096;2023-02-01T07:54:26;8.73;;;4.63;;
61962;SDS011;47927;42.646;23.096;2023-02-01T07:56:51;7.03;;;3.25;;
61962;SDS011;47927;42.646;23.096;2023-02-01T07:59:17;9.75;;;3.03;;
61962;SDS011;47927;42.646;23.096;2023-02-01T08:01:42;7.22;;;3.70;;
61962;SDS011;47927;42.646;23.096;2023-02-01T08:04:09;9.30;;;4.57;;
61962;SDS011;47927;42.646;23.096;2023-02-01T08:06:37;12.65;;;4.65;;
61962;SDS011;47927;42.646;23.096;2023-02-01T08:09:04;8.43;;;4.35;;
61962;SDS011;47927;42.646;23.096;2023-02-01T08:11:30;6.05;;;3.33;;
61962;SDS011;47927;42.646;23.096;2023-02-01T08:13:57;9.48;;;3.75;;
61962;SDS011;47927;42.646;23.096;2023-02-01T08:16:23;10.48;;;3.97;;
61962;SDS011;47927;42.646;23.096;2023-02-01T08:18:49;6.93;;;3.50;;
61962;SDS011;47927;42.646;23.096;2023-02-01T08:21:16;6.97;;;3.58;;
61962;SDS011;47927;42.646;23.096;2023-02-01T08:23:45;6.68;;;4.03;;
61962;SDS011;47927;42.646;23.096;2023-02-01T08:28:43;6.05;;;3.05;;
61962;SDS011;47927;42.646;23.096;2023-02-01T08:31:12;7.47;;;2.28;;
61962;SDS011;47927;42.646;23.096;2023-02-01T08:33:42;7.63;;;3.72;;
61962;SDS011;47927;42.646;23.096;2023-02-01T08:36:10;6.28;;;2.90;;
61962;SDS011;47927;42.646;23.096;2023-02-01T08:38:37;7.18;;;1.98;;
61962;SDS011;47927;42.646;23.096;2023-02-01T08:41:23;7.82;;;2.70;;
61962;SDS011;47927;42.646;23.096;2023-02-01T08:43:51;9.65;;;4.43;;
61962;SDS011;47927;42.646;23.096;2023-02-01T08:46:17;15.40;;;5.13;;
61962;SDS011;47927;42.646;23.096;2023-02-01T08:48:42;10.02;;;3.92;;
61962;SDS011;47927;42.646;23.096;2023-02-01T08:51:11;8.00;;;3.85;;
61962;SDS011;47927;42.646;23.096;2023-02-01T08:53:38;7.95;;;3.65;;
61962;SDS011;47927;42.646;23.096;2023-02-01T08:56:08;7.65;;;3.17;;
61962;SDS011;47927;42.646;23.096;2023-02-01T08:58:35;7.70;;;4.07;;
61962;SDS011;47927;42.646;23.096;2023-02-01T09:01:04;11.25;;;4.53;;
61962;SDS011;47927;42.646;23.096;2023-02-01T09:03:33;11.25;;;3.50;;
61962;SDS011;47927;42.646;23.096;2023-02-01T09:06:00;7.97;;;3.53;;
61962;SDS011;47927;42.646;23.096;2023-02-01T09:08:29;7.25;;;3.40;;
61962;SDS011;47927;42.646;23.096;2023-02-01T09:11:02;6.88;;;3.83;;
61962;SDS011;47927;42.646;23.096;2023-02-01T09:13:30;8.27;;;3.40;;
61962;SDS011;47927;42.646;23.096;2023-02-01T09:15:56;6.22;;;3.33;;
61962;SDS011;47927;42.646;23.096;2023-02-01T09:18:22;17.50;;;3.33;;
61962;SDS011;47927;42.646;23.096;2023-02-01T09:20:47;7.78;;;3.88;;
61962;SDS011;47927;42.646;23.096;2023-02-01T09:23:13;12.90;;;3.65;;
61962;SDS011;47927;42.646;23.096;2023-02-01T09:25:39;6.05;;;2.92;;
61962;SDS011;47927;42.646;23.096;2023-02-01T09:28:05;9.50;;;3.22;;
61962;SDS011;47927;42.646;23.096;2023-02-01T09:30:32;10.05;;;4.07;;
61962;SDS011;47927;42.646;23.096;2023-02-01T09:32:58;7.32;;;3.33;;
61962;SDS011;47927;42.646;23.096;2023-02-01T09:35:24;10.05;;;2.85;;
61962;SDS011;47927;42.646;23.096;2023-02-01T09:37:50;9.30;;;3.03;;
61962;SDS011;47927;42.646;23.096;2023-02-01T09:40:18;6.18;;;2.38;;
61962;SDS011;47927;42.646;23.096;2023-02-01T09:48:10;7.97;;;2.65;;
61962;SDS011;47927;42.646;23.096;2023-02-01T09:50:51;5.90;;;2.58;;
61962;SDS011;47927;42.646;23.096;2023-02-01T09:53:21;8.23;;;2.45;;
61962;SDS011;47927;42.646;23.096;2023-02-01T09:55:55;7.82;;;2.47;;
61962;SDS011;47927;42.646;23.096;2023-02-01T09:58:38;4.88;;;2.33;;
61962;SDS011;47927;42.646;23.096;2023-02-01T10:01:28;7.30;;;2.15;;
61962;SDS011;47927;42.646;23.096;2023-02-01T10:04:05;5.63;;;1.83;;
61962;SDS011;47927;42.646;23.096;2023-02-01T10:15:21;7.05;;;2.30;;
61962;SDS011;47927;42.646;23.096;2023-02-01T10:28:25;5.65;;;1.92;;
61962;SDS011;47927;42.646;23.096;2023-02-01T10:30:52;5.25;;;2.33;;
61962;SDS011;47927;42.646;23.096;2023-02-01T10:33:26;5.40;;;2.55;;
61962;SDS011;47927;42.646;23.096;2023-02-01T10:36:29;5.07;;;2.42;;
61962;SDS011;47927;42.646;23.096;2023-02-01T10:38:56;9.93;;;3.15;;
61962;SDS011;47927;42.646;23.096;2023-02-01T10:41:23;5.13;;;2.80;;
61962;SDS011;47927;42.646;23.096;2023-02-01T10:50:35;4.22;;;2.08;;
61962;SDS011;47927;42.646;23.096;2023-02-01T10:53:15;3.85;;;1.80;;
61962;SDS011;47927;42.646;23.096;2023-02-01T11:06:03;2.80;;;1.13;;
61962;SDS011;47927;42.646;23.096;2023-02-01T11:08:46;2.45;;;1.13;;
61962;SDS011;47927;42.646;23.096;2023-02-01T11:11:15;8.93;;;1.38;;
61962;SDS011;47927;42.646;23.096;2023-02-01T11:13:41;4.05;;;1.13;;
61962;SDS011;47927;42.646;23.096;2023-02-01T11:16:06;2.88;;;1.42;;
61962;SDS011;47927;42.646;23.096;2023-02-01T11:18:56;5.17;;;1.80;;
61962;SDS011;47927;42.646;23.096;2023-02-01T11:21:23;2.63;;;1.33;;
61962;SDS011;47927;42.646;23.096;2023-02-01T11:23:48;4.03;;;1.48;;
61962;SDS011;47927;42.646;23.096;2023-02-01T11:26:19;2.30;;;1.02;;
61962;SDS011;47927;42.646;23.096;2023-02-01T11:29:01;2.67;;;1.15;;
61962;SDS011;47927;42.646;23.096;2023-02-01T11:31:30;5.65;;;1.42;;
61962;SDS011;47927;42.646;23.096;2023-02-01T11:33:59;1.52;;;0.80;;
61962;SDS011;47927;42.646;23.096;2023-02-01T11:36:46;3.72;;;1.33;;
61962;SDS011;47927;42.646;23.096;2023-02-01T11:39:18;1.38;;;0.57;;
61962;SDS011;47927;42.646;23.096;2023-02-01T11:41:57;1.98;;;0.90;;
61962;SDS011;47927;42.646;23.096;2023-02-01T11:44:32;2.55;;;1.00;;
61962;SDS011;47927;42.646;23.096;2023-02-01T11:49:58;2.25;;;1.00;;
61962;SDS011;47927;42.646;23.096;2023-02-01T12:08:52;2.60;;;1.15;;
61962;SDS011;47927;42.646;23.096;2023-02-01T12:35:01;2.47;;;1.13;;
61962;SDS011;47927;42.646;23.096;2023-02-01T12:40:50;2.45;;;0.98;;
61962;SDS011;47927;42.646;23.096;2023-02-01T12:46:21;3.22;;;1.27;;
61962;SDS011;47927;42.646;23.096;2023-02-01T12:48:57;1.48;;;0.70;;
61962;SDS011;47927;42.646;23.096;2023-02-01T12:54:17;4.28;;;1.27;;
61962;SDS011;47927;42.646;23.096;2023-02-01T12:57:02;1.77;;;0.95;;
61962;SDS011;47927;42.646;23.096;2023-02-01T13:02:21;1.58;;;0.82;;
61962;SDS011;47927;42.646;23.096;2023-02-01T13:05:15;3.90;;;1.00;;
61962;SDS011;47927;42.646;23.096;2023-02-01T13:13:18;2.30;;;1.13;;
61962;SDS011;47927;42.646;23.096;2023-02-01T13:18:59;3.53;;;1.20;;
61962;SDS011;47927;42.646;23.096;2023-02-01T13:21:34;4.53;;;1.00;;
61962;SDS011;47927;42.646;23.096;2023-02-01T13:24:06;5.38;;;1.15;;
61962;SDS011;47927;42.646;23.096;2023-02-01T13:29:11;2.25;;;1.10;;
61962;SDS011;47927;42.646;23.096;2023-02-01T13:31:45;2.50;;;1.00;;
61962;SDS011;47927;42.646;23.096;2023-02-01T13:40:39;2.45;;;1.20;;
61962;SDS011;47927;42.646;23.096;2023-02-01T13:43:27;2.50;;;1.00;;
61962;SDS011;47927;42.646;23.096;2023-02-01T13:45:56;4.47;;;1.20;;
61962;SDS011;47927;42.646;23.096;2023-02-01T13:48:37;3.63;;;1.00;;
61962;SDS011;47927;42.646;23.096;2023-02-01T13:51:03;4.50;;;1.50;;
61962;SDS011;47927;42.646;23.096;2023-02-01T13:53:30;3.70;;;1.70;;
61962;SDS011;47927;42.646;23.096;2023-02-01T13:58:44;3.63;;;1.35;;
61962;SDS011;47927;42.646;23.096;2023-02-01T14:03:57;2.25;;;1.00;;
61962;SDS011;47927;42.646;23.096;2023-02-01T14:16:41;3.40;;;0.98;;
61962;SDS011;47927;42.646;23.096;2023-02-01T14:19:09;3.17;;;1.20;;
61962;SDS011;47927;42.646;23.096;2023-02-01T14:24:23;4.25;;;1.70;;
61962;SDS011;47927;42.646;23.096;2023-02-01T14:26:55;7.05;;;1.95;;
61962;SDS011;47927;42.646;23.096;2023-02-01T14:29:34;6.78;;;2.17;;
61962;SDS011;47927;42.646;23.096;2023-02-01T14:44:54;8.85;;;3.80;;
61962;SDS011;47927;42.646;23.096;2023-02-01T14:47:40;6.82;;;3.70;;
61962;SDS011;47927;42.646;23.096;2023-02-01T14:52:36;7.93;;;3.58;;
61962;SDS011;47927;42.646;23.096;2023-02-01T14:55:17;8.68;;;4.07;;
61962;SDS011;47927;42.646;23.096;2023-02-01T14:58:06;7.45;;;3.53;;
61962;SDS011;47927;42.646;23.096;2023-02-01T15:00:47;7.28;;;3.13;;
61962;SDS011;47927;42.646;23.096;2023-02-01T15:03:25;6.72;;;2.53;;
61962;SDS011;47927;42.646;23.096;2023-02-01T15:06:12;7.20;;;3.15;;
61962;SDS011;47927;42.646;23.096;2023-02-01T15:08:46;8.50;;;2.30;;
61962;SDS011;47927;42.646;23.096;2023-02-01T15:11:14;3.10;;;1.45;;
61962;SDS011;47927;42.646;23.096;2023-02-01T15:13:40;5.95;;;1.92;;
61962;SDS011;47927;42.646;23.096;2023-02-01T15:16:16;2.80;;;1.30;;
61962;SDS011;47927;42.646;23.096;2023-02-01T15:18:42;5.68;;;1.85;;
61962;SDS011;47927;42.646;23.096;2023-02-01T15:21:23;6.25;;;1.92;;
61962;SDS011;47927;42.646;23.096;2023-02-01T15:23:50;3.65;;;1.38;;
61962;SDS011;47927;42.646;23.096;2023-02-01T15:26:28;2.95;;;1.05;;
61962;SDS011;47927;42.646;23.096;2023-02-01T15:28:57;3.40;;;1.30;;
61962;SDS011;47927;42.646;23.096;2023-02-01T15:31:33;4.38;;;1.60;;
61962;SDS011;47927;42.646;23.096;2023-02-01T15:34:02;3.60;;;1.77;;
61962;SDS011;47927;42.646;23.096;2023-02-01T15:36:28;4.25;;;1.40;;
61962;SDS011;47927;42.646;23.096;2023-02-01T15:41:49;3.70;;;1.77;;
61962;SDS011;47927;42.646;23.096;2023-02-01T15:46:45;25.58;;;11.93;;
61962;SDS011;47927;42.646;23.096;2023-02-01T15:51:49;16.65;;;7.00;;
61962;SDS011;47927;42.646;23.096;2023-02-01T15:54:16;26.27;;;10.75;;
61962;SDS011;47927;42.646;23.096;2023-02-01T15:56:49;33.05;;;12.10;;
61962;SDS011;47927;42.646;23.096;2023-02-01T15:59:19;23.67;;;9.73;;
61962;SDS011;47927;42.646;23.096;2023-02-01T16:01:47;28.50;;;14.37;;
61962;SDS011;47927;42.646;23.096;2023-02-01T16:04:15;17.35;;;8.35;;
61962;SDS011;47927;42.646;23.096;2023-02-01T16:06:48;12.90;;;5.63;;
61962;SDS011;47927;42.646;23.096;2023-02-01T16:09:18;15.13;;;7.45;;
61962;SDS011;47927;42.646;23.096;2023-02-01T16:11:59;10.25;;;6.43;;
61962;SDS011;47927;42.646;23.096;2023-02-01T16:14:26;10.00;;;5.88;;
61962;SDS011;47927;42.646;23.096;2023-02-01T16:16:54;9.52;;;4.85;;
61962;SDS011;47927;42.646;23.096;2023-02-01T16:19:21;9.38;;;4.95;;
61962;SDS011;47927;42.646;23.096;2023-02-01T16:21:50;9.90;;;5.18;;
61962;SDS011;47927;42.646;23.096;2023-02-01T16:24:15;9.98;;;5.00;;
61962;SDS011;47927;42.646;23.096;2023-02-01T16:26:41;8.75;;;4.43;;
61962;SDS011;47927;42.646;23.096;2023-02-01T16:29:06;8.50;;;4.53;;
61962;SDS011;47927;42.646;23.096;2023-02-01T16:31:36;7.03;;;3.38;;
61962;SDS011;47927;42.646;23.096;2023-02-01T16:34:04;9.13;;;4.28;;
61962;SDS011;47927;42.646;23.096;2023-02-01T16:36:33;8.45;;;4.07;;
61962;SDS011;47927;42.646;23.096;2023-02-01T16:38:59;7.50;;;3.97;;
61962;SDS011;47927;42.646;23.096;2023-02-01T16:41:25;7.03;;;3.80;;
61962;SDS011;47927;42.646;23.096;2023-02-01T16:43:53;7.28;;;3.85;;
61962;SDS011;47927;42.646;23.096;2023-02-01T16:46:20;6.05;;;3.17;;
61962;SDS011;47927;42.646;23.096;2023-02-01T16:48:51;7.63;;;2.83;;
61962;SDS011;47927;42.646;23.096;2023-02-01T16:51:21;8.10;;;3.42;;
61962;SDS011;47927;42.646;23.096;2023-02-01T16:53:49;9.50;;;4.93;;
61962;SDS011;47927;42.646;23.096;2023-02-01T16:56:20;12.95;;;5.22;;
61962;SDS011;47927;42.646;23.096;2023-02-01T16:58:51;8.30;;;4.65;;
61962;SDS011;47927;42.646;23.096;2023-02-01T17:01:17;13.07;;;6.20;;
61962;SDS011;47927;42.646;23.096;2023-02-01T17:03:44;12.77;;;5.97;;
61962;SDS011;47927;42.646;23.096;2023-02-01T17:06:11;11.02;;;6.60;;
61962;SDS011;47927;42.646;23.096;2023-02-01T17:08:42;12.80;;;6.90;;
61962;SDS011;47927;42.646;23.096;2023-02-01T17:11:11;14.93;;;9.17;;
61962;SDS011;47927;42.646;23.096;2023-02-01T17:13:38;18.33;;;10.75;;
61962;SDS011;47927;42.646;23.096;2023-02-01T17:16:13;16.13;;;9.75;;
61962;SDS011;47927;42.646;23.096;2023-02-01T17:18:43;16.92;;;9.15;;
61962;SDS011;47927;42.646;23.096;2023-02-01T17:21:17;15.02;;;8.48;;
61962;SDS011;47927;42.646;23.096;2023-02-01T17:23:43;17.70;;;10.52;;
61962;SDS011;47927;42.646;23.096;2023-02-01T17:26:10;15.80;;;8.48;;
61962;SDS011;47927;42.646;23.096;2023-02-01T17:28:36;15.32;;;7.95;;
61962;SDS011;47927;42.646;23.096;2023-02-01T17:31:01;11.90;;;6.68;;
61962;SDS011;47927;42.646;23.096;2023-02-01T17:33:29;20.08;;;4.30;;
61962;SDS011;47927;42.646;23.096;2023-02-01T17:35:58;8.05;;;3.83;;
61962;SDS011;47927;42.646;23.096;2023-02-01T17:38:24;13.13;;;5.47;;
61962;SDS011;47927;42.646;23.096;2023-02-01T17:40:50;11.75;;;4.53;;
61962;SDS011;47927;42.646;23.096;2023-02-01T17:43:18;10.73;;;4.70;;
61962;SDS011;47927;42.646;23.096;2023-02-01T17:48:17;8.55;;;3.25;;
61962;SDS011;47927;42.646;23.096;2023-02-01T17:50:46;7.00;;;3.80;;
61962;SDS011;47927;42.646;23.096;2023-02-01T17:53:15;8.07;;;3.30;;
61962;SDS011;47927;42.646;23.096;2023-02-01T17:55:42;8.85;;;4.00;;
61962;SDS011;47927;42.646;23.096;2023-02-01T17:58:10;5.60;;;3.33;;
61962;SDS011;47927;42.646;23.096;2023-02-01T18:00:37;10.45;;;4.80;;